Timeline UpdatesTrip UpdatesNews PostsPvt PostsTravel TipsAdmin PostsConv PostsFollowed PostsChat RequestsBlog PostsPNR Posts

Disclaimer
Search
 
 
Sat Apr 19, 2014 09:53:35 ISTHomeTrainsΣChainsAtlasPNRForumGalleryNewsFAQTripsMembersLoginFeedback
No Recent News for this Train
Other Trains in the News **new
Latest...
.
Sat Feb 22, 2014 (09:04PM)
⇐ Return Journey: Train# 57305

57306/Guntur Kacheguda Passenger

Jul 03 2013 (11:33AM)
Change Departure Station:
Change Arrival Station:
Post a Train Travel TipPost a Train Travel Tip **new
Post a Comment/Question/Picture/VideoPost a Comment/Question/Picture/Video
Pantry/Catering
✕ NO Pantry Car
✕ NO Catering
Loco/Rake Reversals
DHNE/Dhone Junction (3);
RSA - Rake Sharing
57307 (KCG - MED Passenger).
Rake/Coach Composition
ENG-SLR-GEN-GEN-GEN-GEN-GEN-S2-S1-GEN-GEN-GEN-GEN-GEN-GEN-SLR, Entry# 721867, Author: Raghavender Daramoni.
Loco
MLY WDM-3A/WDG-3A.
News    PNR    Forum    Time-Table    Availability    Fare Chart    Map    Arr/Dep History    Trips    Gallery    ΣChains    X/O    Timeline    
Travel Time: 14h 12m    -2 halts    Distance: 553 km    Avg Speed: 38 km/hr
Type: Passenger
Zone: SCR/South Central
Departs @ 17:30 (Avg 7m late)
Platform# 1
SMTWTFS
Guntur Junction/GNT 
Arrives @ 07:42 +1 night
Platform# ???
SMTWTFS
Ranga Reddy Guda/RRGA 

-2 halts. 69 intermediate Stations between Guntur Junction and Ranga Reddy Guda

Show ALL intermediate Stations  

#CodeStation NameX/OArrivesAvgDepartsAvgHaltPFDay#KmSpeedElevZoneAddress
1GNTGuntur Junction (7)  -17:30+7110.02737mSCRGuntur, Andhra Pradesh
2NLPDNallapadu Junction (3)  17:41+1317:42+151m--14.94346mSCRPhone Number : 0863-2119153, Andhra Pradesh
3PRCAPerecherla (1)  17:51+1617:52+181m1111.36475mSCRPerecherlaPRCA Station Phone Number : 0863-2290580, Andhra Pradesh
4PPMPhirangipuram  18:01+2018:02+211m--120.96162mSCRPhirangipuram, Andhra Pradesh
5NDPUNudurupadu  18:09+2418:10+241m--128.19349mSCRCoastal Andhra Region, Andhra Pradesh
6STURSatulur  18:14+2918:15+311m--134.24359mSCRGuntur, Andhra Pradesh
7NRTNarasaraopet (3)  18:30+2818:32+302m--145.06774mSCRNarsaraopet ph.no 08647-223131, Andhra Pradesh
8MUKMunumaka  18:39+3318:40+351m--152.85769mSCR08647-219555, Andhra Pradesh
9SABSantamagulur  18:49+3618:50+371m--161.34175mSCRGuntur, Andhra Pradesh
10VLCAVellalacheruvu Halt  18:55-18:56-1m--164.72387mSCRVellalacheruvu, Andhra Pradesh
11SYMSavalyapuramX  19:17+2519:18+261m--172.84587mSCRGuntur Phone Number : 08646-259211, Andhra Pradesh
12VKNVinukonda (1)  19:31+2419:32+261m1182.57595mSCRVinukonda, Andhra Pradesh
13CEMCheekategalapalem  19:39+2819:40+301m--191.24478mSCRVinukonda, Andhra Pradesh
14GKMGundlakamma (1)  19:46+3219:47+331m1195.64891mSCRVinukonda, Andhra Pradesh
15KCDKurichedu (1)  20:01+3220:02+331m11106.958121mSCRPrakasam dt, Andhra Pradesh
16POOPotlapadu (1)  20:09+3620:10+371m11113.737147mSCRAndhra Pradesh, Andhra Pradesh
17DKDDonakonda (3)  20:20+3520:22+372m--1119.947154mSCRPhone:08408-272037, Andhra Pradesh
18GJJGajjelakonda (1)  20:36+3520:37+361m11130.857153mSCRPrakasam. Telephone 08499-247233, Andhra Pradesh
19MRKMarkapur Road (2)  20:51+3820:52+391m11144.139156mSCRmarkapur road ph.no 08596-222028, Andhra Pradesh
20TLUTarlupadu (1)  21:09+3521:10+351m11155.164164mSCRPhone Number : 08499-246232, Andhra Pradesh
21CBMCumbum (1)  21:24+3621:25+381m11170.045199mSCRprakasham dist, Andhra Pradesh
22JBKJaggambotla KrishnapuramX  21:34+3921:35+401m--1176.850200mSCRPhone;08406-200100, Andhra Pradesh
23SDVSomidevipalle  21:49+3821:50+401m--1188.553225mSCRPhone Number : 9441901913, Andhra Pradesh
24GMAGudimetta  21:55+4321:56+431m--1192.945231mSCRBestavaripeta, Andhra Pradesh
25GIDGiddalur (2)  22:10+4322:12+442m--1203.442269mSCRGiddalur ph.no 08405-242003, Andhra Pradesh
26KSTEKrishnamsetty PalleX  22:19+4322:20+431m--1208.344278mSCRPrakasam, Andhra Pradesh
27DMTDiguvametta  22:29+4322:30+541m--1214.935315mSCRRayalaseema Region, Andhra Pradesh
28CMZChelama (1)X  22:59+4423:00+461m11231.634314mSCRKurnool, Andhra Pradesh
29GZLGazulapalli  23:19+3523:20+351m--1242.419238mSCRKurnool, Andhra Pradesh
30NDLNandyal (3)  00:05+1500:10+225m12256.789216mSCRPhone Number : 9247019958, Andhra Pradesh
31PNMPanyam (2)  00:20+3900:21+431m--2271.656227mSCRKurnool Dist., Andhra Pradesh
32BEYBugganipalli Cement Nagar  00:41+4900:42+511m--2290.457386mSCRKurnool, Andhra Pradesh
33BMHBetamcherla (2)  00:49+5400:50+551m--2297.060425mSCRBetamcherla, Andhra Pradesh
34RGMRangapuram  01:01+5501:02+561m--2308.059440mSCRKurnool, Andhra Pradesh
35MLKMalkapuram  01:14+1:0401:15+1:071m--2319.712459mSCRKurnool, Andhra Pradesh
36DHNEDhone Junction (3)XO02:20+1:2602:50+5630m--2332.864425mSCR518222, Andhra Pradesh
37VDIVeldurti (2)X  03:09+1:0303:10+1:031m--2353.046341mSCRVeldurthi, Andhra Pradesh
38KRNTKurnool City (3)  03:55+5603:57+1:042m--2387.259293mSCRKurnool Ph:08518-220110, Andhra Pradesh
39SBBJSri Bala Brahmeswara Jogulamba Halt (1)  04:07+1:0804:08+1:081m12397.056312mSCRAlampur Rd, Andhra Pradesh
40GWDGadwal Junction (2)X  04:57+1:0804:58+1:171m--2442.562327mSCRMahbubnagar, Andhra Pradesh
41WPRWanaparti Road (2)  05:19+1:2505:20+1:281m--2464.185330mSCRMahbubnagar, Andhra Pradesh
42MHBTMahbubnagar Town Halt (1)O  05:56+5205:57+521m12515.03500mSCRMahbubnagar, Andhra Pradesh
43MBNRMahbubnagar (3)  06:50+5207:05+4215m--2517.575500mSCRMahbubnagar, Andhra Pradesh
44JCLJadcherla (3)X  07:19+4807:20+491m--2535.150545mSCR509301, Andhra Pradesh
45GLYGollapally (1)  07:29+4907:30+511m12542.748556mSCRMahabubnagar, Andhra Pradesh
46BABRBalanagar (3)  07:49+4507:50+451m12558.039566mSCRMahabubnagar, Andhra Pradesh
47SHNRShadnagar (3)  08:11+3908:12+401m--2571.575648mSCRShadnagar, Andhra Pradesh
48TMXTimmapur (2)X  08:24+4108:25+431m--2586.582582mSCRRangareddy, Andhra Pradesh
49URUmdanagar (3)  08:37+4308:38+441m--2602.956581mSCRHyderabad, Andhra Pradesh
50BDVLBudvel (2)  08:45+4308:46+431m--2609.414556mSCRHyderabad, Andhra Pradesh
51FMFalaknuma (3)  09:14+3309:15+331m--2616.137523mSCRHyderabad, Andhra Pradesh
52HPGHuppuguda (2)  09:17+3309:18+331m--2617.349520mSCRHyderabad, Andhra Pradesh
53YKAYakutpura (2)  09:21+3309:22+331m--2619.746505mSCRHyderabad, Andhra Pradesh
54DQRDabirpura (2)  09:23+3309:24+331m--2620.538500mSCRHyderabad, Andhra Pradesh
55MXTMalakpet (2)  09:26+809:27+81m12621.83494mSCRHyderabad, Andhra Pradesh
56KCGHyderabad Kacheguda (5)  10:00+8-12623.4-494mSCRHyderabad - 500027, Andhra Pradesh
Scroll to Top
Scroll to Bottom